createdAt,value
2018-12-13T00:00:23.693Z,8.90
2018-12-13T00:02:51.093Z,8.90
2018-12-13T00:05:18.550Z,8.90
2018-12-13T00:07:45.984Z,8.80
2018-12-13T00:10:13.545Z,8.80
2018-12-13T00:12:41.018Z,8.80
2018-12-13T00:15:08.666Z,8.70
2018-12-13T00:17:36.124Z,8.60
2018-12-13T00:20:04.099Z,8.60
2018-12-13T00:22:31.524Z,8.70
2018-12-13T00:24:58.955Z,8.70
2018-12-13T00:27:26.466Z,8.70
2018-12-13T00:29:53.913Z,8.70
2018-12-13T00:32:21.345Z,8.80
2018-12-13T00:34:48.793Z,8.80
2018-12-13T00:37:16.305Z,8.80
2018-12-13T00:39:43.718Z,8.80
2018-12-13T00:42:11.217Z,8.80
2018-12-13T00:44:38.643Z,8.80
2018-12-13T00:47:06.098Z,8.80
2018-12-13T00:49:33.521Z,8.80
2018-12-13T00:52:00.951Z,8.60
2018-12-13T00:54:28.402Z,8.70
2018-12-13T00:56:55.849Z,8.80
2018-12-13T00:59:23.291Z,8.80
2018-12-13T01:01:50.770Z,8.90
2018-12-13T01:04:18.241Z,8.90
2018-12-13T01:06:46.100Z,8.90
2018-12-13T01:09:13.769Z,8.90
2018-12-13T01:11:41.201Z,8.90
2018-12-13T01:14:08.622Z,8.80
2018-12-13T01:16:36.130Z,8.90
2018-12-13T01:19:03.615Z,8.80
2018-12-13T01:21:31.038Z,8.80
2018-12-13T01:23:58.497Z,8.70
2018-12-13T01:26:25.973Z,8.60
2018-12-13T01:28:53.399Z,8.50
2018-12-13T01:31:20.890Z,8.40
2018-12-13T01:33:48.374Z,8.30
2018-12-13T01:36:15.889Z,8.10
2018-12-13T01:38:43.305Z,8.00
2018-12-13T01:41:10.765Z,7.90
2018-12-13T01:43:38.269Z,7.80
2018-12-13T01:46:05.710Z,7.70
2018-12-13T01:48:33.145Z,7.60
2018-12-13T01:51:00.641Z,7.60
2018-12-13T01:53:28.102Z,7.40
2018-12-13T01:55:55.528Z,7.40
2018-12-13T01:58:28.975Z,7.30
2018-12-13T02:00:56.413Z,7.20
2018-12-13T02:03:23.854Z,7.20
2018-12-13T02:05:51.339Z,7.10
2018-12-13T02:08:18.793Z,7.00
2018-12-13T02:10:47.062Z,7.00
2018-12-13T02:13:14.537Z,7.00
2018-12-13T02:15:41.961Z,7.00
2018-12-13T02:18:09.432Z,6.90
2018-12-13T02:20:36.894Z,6.80
2018-12-13T02:23:04.383Z,6.80
2018-12-13T02:25:31.906Z,6.80
2018-12-13T02:27:59.361Z,6.70
2018-12-13T02:30:26.927Z,6.70
2018-12-13T02:32:54.391Z,6.60
2018-12-13T02:35:21.894Z,6.50
2018-12-13T02:37:49.409Z,6.50
2018-12-13T02:40:16.864Z,6.50
2018-12-13T02:42:44.303Z,6.50
2018-12-13T02:45:11.751Z,6.40
2018-12-13T02:47:39.290Z,6.40
2018-12-13T02:50:06.874Z,6.40
2018-12-13T02:52:34.362Z,6.30
2018-12-13T02:55:01.872Z,6.30
2018-12-13T02:57:30.349Z,6.30
2018-12-13T02:59:57.809Z,6.30
2018-12-13T03:02:25.233Z,6.20
2018-12-13T03:04:52.708Z,6.20
2018-12-13T03:07:20.140Z,6.20
2018-12-13T03:09:47.700Z,6.20
2018-12-13T03:12:15.242Z,6.10
2018-12-13T03:14:42.704Z,6.10
2018-12-13T03:17:10.164Z,6.10
2018-12-13T03:19:38.394Z,6.10
2018-12-13T03:22:05.877Z,6.00
2018-12-13T03:24:33.350Z,6.10
2018-12-13T03:27:00.771Z,6.10
2018-12-13T03:29:28.369Z,6.10
2018-12-13T03:31:55.796Z,6.10
2018-12-13T03:34:23.216Z,6.10
2018-12-13T03:36:50.638Z,6.10
2018-12-13T03:39:18.070Z,6.00
2018-12-13T03:41:45.492Z,5.90
2018-12-13T03:44:12.922Z,6.10
2018-12-13T03:46:40.373Z,6.00
2018-12-13T03:49:07.794Z,6.00
2018-12-13T03:51:35.256Z,6.10
2018-12-13T03:54:02.741Z,6.10
2018-12-13T03:56:30.196Z,6.10
2018-12-13T03:58:57.629Z,6.10
2018-12-13T04:01:25.047Z,6.10
2018-12-13T04:03:52.577Z,6.10
2018-12-13T04:06:20.146Z,6.00
2018-12-13T04:08:47.571Z,6.00
2018-12-13T04:11:14.994Z,6.00
2018-12-13T04:13:42.614Z,6.00
2018-12-13T04:16:10.042Z,5.90
2018-12-13T04:18:38.391Z,5.90
2018-12-13T04:21:05.898Z,5.80
2018-12-13T04:23:33.358Z,5.80
2018-12-13T04:26:00.820Z,5.80
2018-12-13T04:28:28.284Z,5.70
2018-12-13T04:30:55.731Z,5.70
2018-12-13T04:33:23.167Z,5.60
2018-12-13T04:35:50.676Z,5.70
2018-12-13T04:38:18.306Z,5.80
2018-12-13T04:40:45.746Z,5.70
2018-12-13T04:43:13.234Z,5.70
2018-12-13T04:45:40.665Z,5.70
2018-12-13T04:48:08.085Z,5.60
2018-12-13T04:50:35.515Z,5.50
2018-12-13T04:53:02.977Z,5.40
2018-12-13T04:55:30.396Z,5.50
2018-12-13T04:57:57.847Z,5.50
2018-12-13T05:00:25.326Z,5.60
2018-12-13T05:02:52.754Z,5.50
2018-12-13T05:05:20.319Z,5.60
2018-12-13T05:07:47.741Z,5.50
2018-12-13T05:10:27.014Z,5.50
2018-12-13T05:12:54.428Z,5.50
2018-12-13T05:15:21.850Z,5.40
2018-12-13T05:17:49.304Z,5.40
2018-12-13T05:20:16.768Z,5.40
2018-12-13T05:22:44.182Z,5.30
2018-12-13T05:25:11.629Z,5.40
2018-12-13T05:27:39.059Z,5.40
2018-12-13T05:30:06.596Z,5.40
2018-12-13T05:32:34.018Z,5.40
2018-12-13T05:35:01.456Z,5.30
2018-12-13T05:37:28.968Z,5.30
2018-12-13T05:39:56.428Z,5.20
2018-12-13T05:42:23.847Z,5.20
2018-12-13T05:44:51.358Z,5.10
2018-12-13T05:47:18.786Z,5.10
2018-12-13T05:49:46.216Z,5.10
2018-12-13T05:52:13.654Z,5.10
2018-12-13T05:54:41.176Z,5.00
2018-12-13T05:57:08.654Z,5.10
2018-12-13T05:59:36.208Z,5.10
2018-12-13T06:02:03.792Z,5.10
2018-12-13T06:04:31.246Z,5.00
2018-12-13T06:06:58.679Z,5.00
2018-12-13T06:09:26.120Z,5.00
2018-12-13T06:11:53.583Z,4.90
2018-12-13T06:14:21.007Z,4.90
2018-12-13T06:16:48.489Z,4.90
2018-12-13T06:19:15.945Z,4.90
2018-12-13T06:21:43.365Z,4.90
2018-12-13T06:24:10.795Z,5.00
2018-12-13T06:26:38.836Z,4.90
2018-12-13T06:29:06.278Z,4.90
2018-12-13T06:31:33.749Z,4.90
2018-12-13T06:34:01.202Z,4.90
2018-12-13T06:36:28.679Z,4.80
2018-12-13T06:38:56.105Z,4.80
2018-12-13T06:41:23.530Z,4.90
2018-12-13T06:43:52.346Z,4.90
2018-12-13T06:46:20.159Z,4.90
2018-12-13T06:48:47.582Z,4.80
2018-12-13T06:51:15.007Z,4.80
2018-12-13T06:53:42.508Z,4.80
2018-12-13T06:56:09.947Z,4.80
2018-12-13T06:58:37.365Z,4.80
2018-12-13T07:01:04.884Z,4.80
2018-12-13T07:03:32.305Z,4.80
2018-12-13T07:05:59.801Z,4.80
2018-12-13T07:08:27.211Z,4.80
2018-12-13T07:10:54.645Z,4.80
2018-12-13T07:13:22.067Z,4.70
2018-12-13T07:15:49.499Z,4.70
2018-12-13T07:18:16.946Z,4.70
2018-12-13T07:20:44.365Z,4.70
2018-12-13T07:23:11.831Z,4.70
2018-12-13T07:25:39.246Z,4.70
2018-12-13T07:28:06.662Z,4.70
2018-12-13T07:30:34.086Z,4.70
2018-12-13T07:33:01.527Z,4.70
2018-12-13T07:35:28.976Z,4.70
2018-12-13T07:37:56.401Z,4.60
2018-12-13T07:40:23.837Z,4.60
2018-12-13T07:42:51.357Z,4.70
2018-12-13T07:45:18.858Z,4.60
2018-12-13T07:47:46.370Z,4.70
2018-12-13T07:50:13.794Z,4.70
2018-12-13T07:52:41.302Z,4.70
2018-12-13T07:55:08.850Z,4.70
2018-12-13T07:57:36.297Z,4.70
2018-12-13T08:00:05.232Z,4.70
2018-12-13T08:02:32.710Z,4.80
2018-12-13T08:05:00.222Z,4.90
2018-12-13T08:07:27.759Z,4.80
2018-12-13T08:09:55.165Z,4.80
2018-12-13T08:12:22.698Z,4.90
2018-12-13T08:14:50.148Z,3.70
2018-12-13T08:17:17.608Z,4.90
2018-12-13T08:19:45.109Z,5.00
2018-12-13T08:22:12.530Z,5.10
2018-12-13T08:24:40.002Z,5.10
2018-12-13T08:27:07.438Z,5.10
2018-12-13T08:29:34.905Z,5.10
2018-12-13T08:32:02.323Z,5.10
2018-12-13T08:34:29.781Z,5.20
2018-12-13T08:36:57.197Z,5.40
2018-12-13T08:39:24.618Z,5.90
2018-12-13T08:41:52.077Z,6.70
2018-12-13T08:44:19.539Z,7.40
2018-12-13T08:46:46.958Z,7.80
2018-12-13T08:49:14.380Z,8.10
2018-12-13T08:51:41.862Z,8.20
2018-12-13T08:54:09.272Z,8.50
2018-12-13T08:56:36.700Z,8.90
2018-12-13T08:59:04.170Z,9.30
2018-12-13T09:01:31.597Z,9.90
2018-12-13T09:03:59.027Z,10.20
2018-12-13T09:06:26.655Z,10.50
2018-12-13T09:08:54.107Z,10.50
2018-12-13T09:11:21.544Z,10.30
2018-12-13T09:13:48.965Z,10.10
2018-12-13T09:16:16.393Z,10.00
2018-12-13T09:18:43.840Z,9.70
2018-12-13T09:21:11.277Z,9.50
2018-12-13T09:23:39.284Z,9.30
2018-12-13T09:26:06.712Z,9.30
2018-12-13T09:28:34.142Z,9.40
2018-12-13T09:31:01.610Z,9.70
2018-12-13T09:33:29.038Z,9.60
2018-12-13T09:35:56.591Z,9.40
2018-12-13T09:38:24.014Z,9.20
2018-12-13T09:40:51.430Z,9.30
2018-12-13T09:43:18.936Z,9.40
2018-12-13T09:45:46.399Z,9.50
2018-12-13T09:48:13.849Z,9.50
2018-12-13T09:50:41.288Z,9.70
2018-12-13T09:53:08.736Z,9.60
2018-12-13T09:55:36.325Z,9.50
2018-12-13T09:58:03.769Z,9.40
2018-12-13T10:00:31.232Z,9.40
2018-12-13T10:02:58.667Z,9.90
2018-12-13T10:05:26.082Z,10.40
2018-12-13T10:07:53.544Z,11.10
2018-12-13T10:10:20.974Z,11.40
2018-12-13T10:12:48.470Z,11.40
2018-12-13T10:15:15.995Z,11.00
2018-12-13T10:17:43.458Z,10.90
2018-12-13T10:20:10.926Z,11.10
2018-12-13T10:22:39.413Z,11.90
2018-12-13T10:25:06.947Z,12.60
2018-12-13T10:27:34.426Z,13.00
2018-12-13T10:30:01.886Z,13.50
2018-12-13T10:32:29.417Z,14.30
2018-12-13T10:34:56.892Z,14.80
2018-12-13T10:37:24.325Z,15.20
2018-12-13T10:39:51.782Z,16.40
2018-12-13T10:42:19.254Z,16.40
2018-12-13T10:44:46.659Z,17.20
2018-12-13T10:47:14.268Z,17.70
2018-12-13T10:49:41.718Z,18.60
2018-12-13T10:52:09.195Z,19.10
2018-12-13T10:54:36.663Z,19.50
2018-12-13T10:57:04.098Z,19.20
2018-12-13T10:59:31.555Z,18.90
2018-12-13T11:02:00.858Z,18.90
2018-12-13T11:04:28.445Z,18.90
2018-12-13T11:06:55.920Z,19.20
2018-12-13T11:09:23.403Z,19.50
2018-12-13T11:11:50.825Z,20.00
2018-12-13T11:14:18.345Z,19.90
2018-12-13T11:16:45.796Z,19.40
2018-12-13T11:19:13.281Z,19.50
2018-12-13T11:21:40.765Z,19.30
2018-12-13T11:24:08.198Z,19.10
2018-12-13T11:26:35.634Z,18.60
2018-12-13T11:32:09.477Z,18.70
2018-12-13T11:34:36.901Z,18.30
2018-12-13T11:37:04.354Z,18.10
2018-12-13T11:39:31.814Z,17.40
2018-12-13T11:41:59.302Z,17.70
2018-12-13T11:44:26.749Z,17.90
2018-12-13T11:46:54.199Z,18.00
2018-12-13T11:49:21.706Z,17.40
2018-12-13T11:51:49.137Z,17.50
2018-12-13T11:54:20.422Z,17.60
2018-12-13T11:56:48.905Z,17.60
2018-12-13T11:59:16.350Z,17.50
2018-12-13T12:01:43.895Z,17.40
2018-12-13T12:04:11.343Z,17.60
2018-12-13T12:06:39.601Z,17.20
2018-12-13T12:09:12.221Z,17.40
2018-12-13T12:11:36.498Z,17.60
2018-12-13T12:14:04.030Z,17.40
2018-12-13T12:16:31.502Z,17.10
2018-12-13T12:18:58.926Z,16.40
2018-12-13T12:21:26.401Z,16.20
2018-12-13T12:23:53.872Z,16.00
2018-12-13T12:26:21.335Z,15.90
2018-12-13T12:28:48.761Z,15.60
2018-12-13T12:31:16.263Z,14.90
2018-12-13T12:33:43.686Z,14.60
2018-12-13T12:36:11.146Z,15.10
2018-12-13T12:38:39.533Z,15.00
2018-12-13T12:41:06.976Z,15.20
2018-12-13T12:43:34.474Z,15.00
2018-12-13T12:46:02.110Z,15.10
2018-12-13T12:48:29.557Z,15.10
2018-12-13T12:50:57.017Z,14.70
2018-12-13T12:53:24.478Z,14.20
2018-12-13T12:55:51.900Z,14.00
2018-12-13T12:58:19.394Z,13.80
2018-12-13T13:00:47.135Z,13.40
2018-12-13T13:03:14.577Z,12.80
2018-12-13T13:05:42.183Z,12.50
2018-12-13T13:08:09.627Z,12.20
2018-12-13T13:10:37.201Z,11.70
2018-12-13T13:13:04.666Z,11.10
2018-12-13T13:15:32.126Z,11.00
2018-12-13T13:17:59.570Z,10.50
2018-12-13T13:20:27.026Z,10.20
2018-12-13T13:22:54.476Z,10.20
2018-12-13T13:25:21.941Z,9.90
2018-12-13T13:27:50.658Z,9.20
2018-12-13T13:30:18.261Z,9.20
2018-12-13T13:32:45.725Z,8.80
2018-12-13T13:35:13.202Z,9.00
2018-12-13T13:37:40.639Z,9.10
2018-12-13T13:40:08.182Z,9.10
2018-12-13T13:42:35.620Z,9.20
2018-12-13T13:45:03.321Z,8.90
2018-12-13T13:47:30.749Z,8.90
2018-12-13T13:49:58.209Z,8.90
2018-12-13T13:52:25.710Z,8.90
2018-12-13T13:54:53.148Z,8.90
2018-12-13T13:57:20.637Z,8.70
2018-12-13T13:59:48.071Z,8.80
2018-12-13T14:02:15.507Z,8.90
2018-12-13T14:04:43.006Z,8.80
2018-12-13T14:07:10.470Z,8.60
2018-12-13T14:09:38.272Z,8.70
2018-12-13T14:12:05.826Z,8.60
2018-12-13T14:14:33.354Z,8.80
2018-12-13T14:17:00.814Z,8.70
2018-12-13T14:19:28.310Z,8.80
2018-12-13T14:21:55.807Z,8.80
2018-12-13T14:24:23.218Z,8.80
2018-12-13T14:26:50.647Z,8.60
2018-12-13T14:29:18.222Z,8.60
2018-12-13T14:31:45.758Z,8.50
2018-12-13T14:34:13.180Z,8.80
2018-12-13T14:36:40.658Z,8.80
2018-12-13T14:39:08.230Z,8.70
2018-12-13T14:41:35.690Z,8.60
2018-12-13T14:44:03.137Z,8.70
2018-12-13T14:46:30.567Z,8.80
2018-12-13T14:48:58.074Z,8.60
2018-12-13T14:51:25.537Z,8.40
2018-12-13T14:53:52.980Z,8.50
2018-12-13T14:56:20.403Z,8.60
2018-12-13T14:58:47.898Z,8.60
2018-12-13T15:01:20.367Z,8.60
2018-12-13T15:03:47.823Z,8.70
2018-12-13T15:06:15.247Z,8.70
2018-12-13T15:08:42.761Z,8.40
2018-12-13T15:11:10.214Z,8.60
2018-12-13T15:13:37.641Z,8.40
2018-12-13T15:16:05.062Z,8.60
2018-12-13T15:18:32.601Z,8.60
2018-12-13T15:21:00.317Z,8.30
2018-12-13T15:23:27.807Z,8.20
2018-12-13T15:25:55.267Z,8.30
2018-12-13T15:28:22.706Z,8.30
2018-12-13T15:30:50.170Z,8.30
2018-12-13T15:33:17.600Z,8.20
2018-12-13T15:35:45.021Z,8.10
2018-12-13T15:38:12.467Z,8.20
2018-12-13T15:40:40.112Z,8.10
2018-12-13T15:43:07.559Z,8.20
2018-12-13T15:45:35.356Z,8.40
2018-12-13T15:48:02.906Z,8.40
2018-12-13T15:50:30.449Z,8.40
2018-12-13T15:52:57.901Z,8.50
2018-12-13T15:55:25.361Z,8.60
2018-12-13T15:57:52.814Z,8.50
2018-12-13T16:00:20.282Z,8.60
2018-12-13T16:02:47.813Z,8.60
2018-12-13T16:05:15.266Z,8.50
2018-12-13T16:07:42.682Z,8.50
2018-12-13T16:10:10.210Z,8.50
2018-12-13T16:12:37.639Z,8.30
2018-12-13T16:15:05.514Z,8.50
2018-12-13T16:17:32.968Z,8.60
2018-12-13T16:20:00.449Z,8.70
2018-12-13T16:22:27.989Z,8.70
2018-12-13T16:24:55.391Z,8.80
2018-12-13T16:27:22.866Z,8.80
2018-12-13T16:29:50.727Z,8.90
2018-12-13T16:32:18.250Z,8.90
2018-12-13T16:34:45.729Z,8.90
2018-12-13T16:37:13.152Z,8.80
2018-12-13T16:39:40.654Z,8.80
2018-12-13T16:42:08.178Z,8.80
2018-12-13T16:44:35.615Z,8.80
2018-12-13T16:47:03.077Z,8.80
2018-12-13T16:49:30.547Z,8.70
2018-12-13T16:51:57.974Z,8.70
2018-12-13T16:54:25.480Z,8.70
2018-12-13T16:56:52.897Z,8.70
2018-12-13T16:59:20.394Z,8.70
2018-12-13T17:01:47.910Z,8.70
2018-12-13T17:04:15.416Z,8.60
2018-12-13T17:06:42.956Z,8.60
2018-12-13T17:09:10.390Z,8.60
2018-12-13T17:11:37.817Z,8.70
2018-12-13T17:14:05.269Z,8.70
2018-12-13T17:16:32.703Z,8.70
2018-12-13T17:19:00.154Z,8.60
2018-12-13T17:21:27.607Z,8.60
2018-12-13T17:23:55.065Z,8.60
2018-12-13T17:26:22.526Z,8.50
2018-12-13T17:28:50.000Z,8.50
2018-12-13T17:31:17.427Z,8.50
2018-12-13T17:33:44.842Z,8.50
2018-12-13T17:36:12.315Z,8.40
2018-12-13T17:38:40.316Z,8.40
2018-12-13T17:41:07.791Z,8.40
2018-12-13T17:43:35.234Z,8.30
2018-12-13T17:46:02.684Z,8.20
2018-12-13T17:48:30.150Z,8.20
2018-12-13T17:50:57.711Z,8.10
2018-12-13T17:53:25.321Z,8.10
2018-12-13T17:55:52.945Z,8.10
2018-12-13T17:58:20.374Z,8.10
2018-12-13T18:00:47.806Z,8.20
2018-12-13T18:03:15.269Z,8.20
2018-12-13T18:05:42.777Z,8.00
2018-12-13T18:08:10.230Z,8.10
2018-12-13T18:10:37.709Z,8.20
2018-12-13T18:13:05.142Z,8.30
2018-12-13T18:15:32.602Z,8.30
2018-12-13T18:18:00.061Z,8.40
2018-12-13T18:20:27.522Z,8.40
2018-12-13T18:22:54.980Z,8.40
2018-12-13T18:25:22.823Z,8.40
2018-12-13T18:27:50.245Z,8.30
2018-12-13T18:30:17.762Z,8.30
2018-12-13T18:32:45.176Z,8.30
2018-12-13T18:35:12.670Z,8.20
2018-12-13T18:37:40.578Z,8.10
2018-12-13T18:40:08.188Z,8.00
2018-12-13T18:42:35.659Z,7.90
2018-12-13T18:45:03.746Z,7.90
2018-12-13T18:47:31.187Z,7.70
2018-12-13T18:49:58.597Z,7.50
2018-12-13T18:52:26.108Z,7.40
2018-12-13T18:54:53.543Z,7.40
2018-12-13T18:57:21.024Z,7.30
2018-12-13T18:59:48.451Z,7.30
2018-12-13T19:02:15.874Z,7.30
2018-12-13T19:04:43.305Z,7.20
2018-12-13T19:07:10.862Z,7.20
2018-12-13T19:09:38.333Z,7.20
2018-12-13T19:12:05.813Z,7.20
2018-12-13T19:14:33.331Z,7.20
2018-12-13T19:17:00.762Z,7.00
2018-12-13T19:19:28.202Z,7.00
2018-12-13T19:21:55.631Z,7.00
2018-12-13T19:24:23.166Z,7.00
2018-12-13T19:26:50.817Z,7.00
2018-12-13T19:29:18.290Z,6.90
2018-12-13T19:31:45.749Z,6.90
2018-12-13T19:34:13.193Z,6.80
2018-12-13T19:36:40.645Z,6.80
2018-12-13T19:39:08.213Z,6.80
2018-12-13T19:41:35.645Z,6.80
2018-12-13T19:44:03.126Z,6.80
2018-12-13T19:46:30.558Z,6.90
2018-12-13T19:48:57.999Z,7.00
2018-12-13T19:51:25.469Z,7.10
2018-12-13T19:53:52.927Z,7.20
2018-12-13T19:56:20.360Z,7.30
2018-12-13T19:58:49.679Z,7.30
2018-12-13T20:01:17.137Z,7.40
2018-12-13T20:03:44.582Z,7.50
2018-12-13T20:06:12.101Z,7.50
2018-12-13T20:08:39.545Z,7.50
2018-12-13T20:11:06.994Z,7.50
2018-12-13T20:13:34.414Z,7.50
2018-12-13T20:16:02.024Z,7.60
2018-12-13T20:18:29.866Z,7.50
2018-12-13T20:20:57.367Z,7.60
2018-12-13T20:23:24.806Z,7.60
2018-12-13T20:25:52.347Z,7.40
2018-12-13T20:28:19.801Z,7.40
2018-12-13T20:30:47.282Z,7.40
2018-12-13T20:33:14.762Z,7.50
2018-12-13T20:35:42.183Z,7.60
2018-12-13T20:38:09.635Z,7.60
2018-12-13T20:40:37.047Z,7.70
2018-12-13T20:43:04.544Z,7.70
2018-12-13T20:45:31.946Z,7.70
2018-12-13T20:47:59.375Z,7.60
2018-12-13T20:50:26.826Z,7.60
2018-12-13T20:52:54.310Z,7.60
2018-12-13T20:55:21.754Z,7.50
2018-12-13T20:57:49.213Z,7.50
2018-12-13T21:00:16.776Z,7.50
2018-12-13T21:02:44.320Z,7.40
2018-12-13T21:05:11.747Z,7.40
2018-12-13T21:07:39.175Z,7.40
2018-12-13T21:10:07.134Z,7.40
2018-12-13T21:12:34.574Z,7.50
2018-12-13T21:15:02.053Z,7.50
2018-12-13T21:17:29.478Z,7.50
2018-12-13T21:19:57.046Z,7.50
2018-12-13T21:22:24.489Z,7.50
2018-12-13T21:24:51.994Z,7.60
2018-12-13T21:27:19.532Z,7.60
2018-12-13T21:29:46.960Z,7.50
2018-12-13T21:32:14.449Z,7.60
2018-12-13T21:34:41.889Z,7.60
2018-12-13T21:37:09.321Z,7.50
2018-12-13T21:39:36.774Z,7.50
2018-12-13T21:42:04.217Z,7.50
2018-12-13T21:44:31.646Z,7.60
2018-12-13T21:46:59.185Z,7.70
2018-12-13T21:49:26.648Z,7.60
2018-12-13T21:51:54.203Z,7.60
2018-12-13T21:54:21.672Z,7.60
2018-12-13T21:56:49.445Z,7.70
2018-12-13T21:59:16.896Z,7.70
2018-12-13T22:01:44.348Z,7.70
2018-12-13T22:04:11.798Z,7.70
2018-12-13T22:06:39.283Z,7.70
2018-12-13T22:09:06.826Z,7.70
2018-12-13T22:11:34.275Z,7.80
2018-12-13T22:14:01.745Z,7.80
2018-12-13T22:16:29.158Z,7.80
2018-12-13T22:18:56.670Z,7.80
2018-12-13T22:21:24.213Z,7.70
2018-12-13T22:23:51.743Z,7.70
2018-12-13T22:26:19.241Z,7.50
2018-12-13T22:28:46.662Z,7.30
2018-12-13T22:31:14.083Z,7.20
2018-12-13T22:33:41.519Z,7.10
2018-12-13T22:36:08.953Z,7.00
2018-12-13T22:38:36.384Z,6.80
2018-12-13T22:41:04.083Z,6.70
2018-12-13T22:43:31.786Z,6.60
2018-12-13T22:46:01.258Z,6.60
2018-12-13T22:48:28.715Z,6.50
2018-12-13T22:50:56.141Z,6.50
2018-12-13T22:53:23.627Z,6.40
2018-12-13T22:55:51.943Z,6.30
2018-12-13T22:58:19.464Z,6.30
2018-12-13T23:00:46.934Z,6.20
2018-12-13T23:03:14.510Z,6.20
2018-12-13T23:05:42.034Z,6.20
2018-12-13T23:08:09.495Z,6.10
2018-12-13T23:10:36.903Z,6.10
2018-12-13T23:13:04.342Z,6.00
2018-12-13T23:15:31.825Z,6.10
2018-12-13T23:17:59.258Z,6.00
2018-12-13T23:20:31.707Z,6.00
2018-12-13T23:22:59.165Z,5.90
2018-12-13T23:25:26.605Z,5.80
2018-12-13T23:27:54.067Z,5.80
2018-12-13T23:30:21.525Z,5.80
2018-12-13T23:32:48.977Z,5.80
2018-12-13T23:35:16.458Z,5.70
2018-12-13T23:37:43.857Z,5.70
2018-12-13T23:40:11.309Z,5.60
2018-12-13T23:42:38.742Z,5.50
2018-12-13T23:45:06.219Z,5.40
2018-12-13T23:47:33.678Z,5.40
2018-12-13T23:50:01.103Z,5.40
2018-12-13T23:52:28.540Z,5.30
2018-12-13T23:54:55.962Z,5.20
2018-12-13T23:57:23.391Z,5.20
2018-12-13T23:59:51.363Z,5.20
